ADDS TAF Data INFO
IDs: Format: Raw Decoded Include METARs

Data at: 1202 UTC 12 Dec 2017

Region: TOP
KATL 121143Z 1212/1318 25007KT P6SM BKN200 WS020/27035KT
  FM121400 30012G20KT P6SM BKN200
  FM121700 31017G30KT P6SM BKN030
  FM122100 31017G28KT P6SM SCT030
  FM130200 31012G18KT P6SM SKC
  FM130600 31010KT P6SM SKC
  FM131500 29006KT P6SM FEW250


KBOS 121120Z 1212/1318 13007KT P6SM BKN035 OVC050
  FM121500 15011KT 3SM -RA BR OVC020
  FM122000 17009KT 1 1/2SM BR VCSH OVC015
  FM130000 20007KT P6SM OVC020
  FM130500 26008KT P6SM BKN040
  FM131100 26012G23KT P6SM BKN025
  FM131500 27016G28KT P6SM BKN035


KBWI 121124Z 1212/1318 20005KT P6SM OVC070
  FM121600 26007KT P6SM BKN070
  FM121800 28011G19KT P6SM BKN050
  FM122200 30016G32KT P6SM BKN070


KCLE 121133Z 1212/1318 30018G28KT 5SM -SN OVC025
  TEMPO 1212/1214 2SM -SN BKN015
  FM121400 30020G30KT P6SM OVC025
  FM121700 30022G32KT P6SM SCT025 OVC040
  FM122100 30015G25KT P6SM -SHSN OVC020


KCLT 121138Z 1212/1318 23006KT P6SM SCT150 BKN250
  FM121500 29010G18KT P6SM SCT045 BKN250
  FM122200 30013G22KT P6SM FEW250
  FM130200 31010KT P6SM SKC
  FM130600 28005KT P6SM SKC
  FM131300 25007KT P6SM SKC


KCVG 121143Z 1212/1318 30015G23KT 4SM -DZ BR OVC015
  FM121300 31016G24KT P6SM BKN022 OVC035
  TEMPO 1213/1215 3SM -SHSN
  FM121800 31017G25KT P6SM BKN040
  FM122300 30012KT P6SM SCT040
  FM130300 28007KT P6SM SKC
  FM131000 22005KT P6SM SCT100
  FM131400 19010KT P6SM BKN100


KDCA 121124Z 1212/1318 19007KT P6SM OVC070
  FM121500 23008KT P6SM BKN070
  FM121800 29013G23KT P6SM BKN035
  FM122100 31016G34KT P6SM BKN050
  FM131200 28014G23KT P6SM FEW080


KDEN 121121Z 1212/1318 20012KT P6SM SKC
  FM121800 VRB05KT P6SM SKC
  FM122000 06007KT P6SM FEW250
  FM130100 17008KT P6SM FEW250
  FM130300 22010KT P6SM SCT220
  FM131700 VRB04KT P6SM SCT200


KDFW 121122Z 1212/1318 35015KT P6SM FEW300
  FM130300 24006KT P6SM FEW300
  FM131600 21013KT P6SM FEW300


KDTW 121120Z 1212/1318 32018G30KT 6SM -SHSN BLSN SCT025 BKN035
  FM121400 31018G30KT P6SM BKN045
  FM130100 30012KT P6SM SCT040
  FM130900 25007KT P6SM BKN035
  FM131500 20007KT 6SM -SN OVC025


KEWR 121138Z 1212/1318 16007KT P6SM VCSH BKN030 OVC050
  FM121400 19010G18KT 6SM -SHRA BKN025 OVC040
  FM121900 24012KT P6SM SCT025 OVC060
  FM122300 25016G26KT P6SM BKN050
  FM130200 28018G29KT P6SM -SHSN BKN050
  FM130700 28020G34KT P6SM SCT040 BKN100
  FM131300 29022G36KT P6SM BKN100


KFLL 121120Z 1212/1318 31005KT P6SM SKC
  FM121600 27012KT P6SM FEW030
  FM130000 27008KT P6SM SKC
  FM130400 31010KT P6SM SKC
  FM130900 34010KT P6SM SKC


KIAD 121124Z 1212/1318 19008KT P6SM OVC080
  FM121500 26010KT P6SM BKN120
  FM121800 30015G26KT P6SM BKN045
  FM122100 31015G31KT P6SM VCSH BKN045
  FM130600 29016G30KT P6SM BKN045
  FM131200 28014G23KT P6SM FEW080


KIAH 121135Z 1212/1318 33007KT P6SM FEW250
  FM121400 35013KT P6SM FEW250
  FM130000 VRB04KT P6SM SKC
  FM131200 VRB04KT P6SM BKN250


KJFK 121138Z 1212/1318 17010G20KT P6SM VCSH BKN030 OVC050
  FM121400 19012G20KT 6SM -SHRA BKN025 OVC040
  FM121800 23015KT P6SM VCSH OVC025
  FM130000 27018G27KT P6SM BKN040
  FM130300 29020G32KT P6SM -SHSN BKN040
  FM130700 28020G34KT P6SM SCT040 BKN100
  FM131300 29025G38KT P6SM BKN100


KLAS 121124Z 1212/1318 22006KT P6SM SKC
  FM121600 VRB05KT P6SM SKC
  FM130100 22006KT P6SM SKC
  FM131600 VRB05KT P6SM FEW250


KLAX 121120Z 1212/1318 VRB03KT P6SM FEW200
  FM121400 06006KT P6SM FEW200
  FM121700 VRB03KT P6SM SKC
  FM122100 27010KT P6SM SKC
  FM130400 VRB03KT P6SM SKC


KLGA 121138Z 1212/1318 15008KT P6SM VCSH BKN030 OVC050
  FM121400 19012G18KT 6SM -SHRA BKN025 OVC040
  FM121900 25013KT P6SM OVC025
  FM130000 28017G25KT P6SM BKN040
  FM130300 28020G30KT P6SM -SHSN BKN040
  FM130700 28020G34KT P6SM SCT040 BKN100
  FM131300 29025G38KT P6SM BKN100


KMCO 121121Z 1212/1318 21007KT P6SM SKC
  FM121500 23009KT P6SM FEW040 SCT250
  FM121700 26016G24KT P6SM SCT050 BKN250
  FM130000 29010KT P6SM SKC
  FM130600 32008KT P6SM SKC


KMDW 121138Z 1212/1318 33014G23KT P6SM SCT035 SCT200
  FM122300 30009KT P6SM BKN100
  FM130700 20006KT P6SM SCT045 OVC080
  FM131100 17010KT P6SM FEW030 OVC045
  PROB30 1312/1316 3SM -SN BKN030


KMEM 121120Z 1212/1318 33010KT P6SM SCT050 BKN150
  FM121400 33013G20KT P6SM FEW035 FEW250
  FM130300 VRB03KT P6SM SKC
  FM131300 21010KT P6SM SKC


KMIA 121120Z 1212/1318 VRB03KT P6SM SKC
  FM121500 27010KT P6SM FEW030
  FM130000 27006KT P6SM SKC
  FM130500 31006KT P6SM SKC
  FM131400 34010KT P6SM SKC


KMSP 121140Z 1212/1318 30008KT P6SM SCT080
  FM121800 21005KT P6SM OVC030
  FM122300 15006KT P6SM OVC025
  FM130300 15004KT P6SM BKN060
  FM131200 28011G18KT P6SM VCSH OVC012
  FM131500 32016G29KT P6SM VCSH OVC008
  PROB30 1315/1318 -FZDZ


KORD 121138Z 1212/1318 33014G23KT P6SM SCT035 SCT200
  FM122300 30009KT P6SM BKN100
  FM130700 20006KT P6SM SCT045 OVC080
  FM131100 17010KT P6SM FEW030 OVC045
  PROB30 1312/1316 3SM -SN BKN030


KPDX 121137Z 1212/1312 28003KT P6SM SCT250
  FM121400 28003KT 6SM MIFG SCT250
  FM121700 11005KT P6SM SCT250


KPHL 121128Z 1212/1318 18010KT P6SM OVC070
  FM121500 21010KT P6SM VCSH OVC050
  FM121900 25010KT P6SM BKN040
  FM122200 28012G23KT P6SM BKN045
  FM130800 27015G31KT P6SM SCT050


KPHX 121120Z 1212/1318 07006KT P6SM SCT250 WS020/07028KT
  FM121800 10010G18KT P6SM SCT250
  TEMPO 1219/1223 10014G24KT
  FM122300 07006KT P6SM SCT250 WS019/08035KT


KPIT 121137Z 1212/1318 26012G25KT 6SM -SN OVC010
  TEMPO 1212/1215 1SM -SN BKN008
  FM121700 28014G30KT P6SM OVC025
  FM130100 30015G28KT 5SM -SN OVC010
  FM130800 29012G20KT P6SM BKN015


KSAN 121120Z 1212/1318 VRB03KT P6SM SKC
  FM122000 31009KT P6SM SKC
  FM130100 VRB03KT P6SM FEW250


KSEA 121120Z 1212/1318 12004KT P6SM BKN200
  FM122000 VRB03KT P6SM SCT080 SCT150


KSFO 121123Z 1212/1318 10004KT P6SM SCT200
  FM122000 VRB04KT P6SM FEW200
  FM130100 30006KT P6SM FEW200
  FM130400 31004KT P6SM SKC
  FM131400 VRB03KT P6SM SKC


KSLC 121131Z 1212/1318 34003KT 1/4SM FZFG VV004
  FM121800 34005KT 1SM BR BCFG BKN006
  FM130300 35003KT 3/4SM BR BCFG BKN003


KSTL 121121Z 1212/1318 32013G25KT P6SM BKN035
  FM121400 32011G20KT P6SM FEW250
  FM130000 29008KT P6SM FEW070
  FM130600 23005KT P6SM FEW080
  FM131200 19005KT P6SM FEW080 WS020/24035KT
  FM131500 24010KT P6SM SCT250


KTPA 121139Z 1212/1318 18005KT P6SM SCT040
  FM121400 23008KT P6SM BKN040
  FM121600 27015G25KT P6SM BKN040
  FM122000 29016G26KT P6SM SCT040
  FM130000 31010KT P6SM FEW040
  FM130600 36007KT P6SM SKC